Terminal Aerodrome Forecast
Issued by NWS

Home | Current Version | Previous Version | Text Only | Print | Product List | Glossary On
Versions: 1 2 3 4 5 6 7 8 9 10 11 12 13 14 15
000
FTUS44 KEPZ 292335
TAFLRU
TAF
KLRU 292335Z 3000/3024 11011KT P6SM VCTS SCT070CB BKN120 BKN200
     FM300600 10007KT P6SM SCT070 BKN100 BKN250
     FM301600 15008KT P6SM FEW070 SCT100 SCT250
     FM302100 12008KT P6SM SCT100 SCT250=

USA.gov is the U.S. government's official web portal to all federal, state and local government web resources and services.